KNBG/NBG METAR and TAF weather

Enter ICAO airport designator
Station Type Date Time Source
KNBG METAR 2018/12/12 04:55 UTC NOAA

KNBG 120455Z 00000KT 10SM FEW250 02/02 A3030 RMK SLP261 T00220022


Station Type Date Time Source
KNBG Decoded METAR 2018/12/12 04:55 UTC NOAA

NEW ORLEANS NAVAL AIR STN, LA, United States (KNBG) 29-50N 90-01W
Dec 11, 2018 - 11:55 PM EST / 2018.12.12 0455 UTC
Wind: Calm:0
Visibility: 10 mile(s):0
Sky conditions: mostly clear
Temperature: 36.0 F (2.2 C)
Dew Point: 36.0 F (2.2 C)
Relative Humidity: 100%
Pressure (altimeter): 30.3 in. Hg (1026 hPa)
ob: KNBG 120455Z 00000KT 10SM FEW250 02/02 A3030 RMK SLP261 T00220022
cycle: 5

Station Type Date Time Source
KNBG TAF 2018/12/12 07:09 UTC NOAA

TAF TAF KNBG 1207/1307 VRB05KT 9999 SCT250 QNH3002INS
BECMG 1212/1214 VRB05KT FEW010 SCT020 QNH3019INS
BECMG 1218/1220 16008KT SCT020 BKN035 OVC050 QNH3006INS AUTOMATED SENSOR METWATCH 1207 TIL 1211 T01/1208Z T20/1220Z FN00199


Example: see airport list